Terminal Aerodrome Forecast
Issued by NWS

Home | Current Version | Previous Version | Text Only | Print | Product List | Glossary On
Versions: 1 2 3 4 5 6 7 8 9 10 11 12
230
FTUS43 KDTX 242320
TAFMBS
TAF
KMBS 242320Z 2500/2524 04012KT P6SM BKN250
     FM250200 12008KT P6SM SCT250
     FM250800 11007KT P6SM BKN060
     FM251300 10007KT P6SM OVC045
     FM251600 13006KT P6SM SCT025 OVC035
     FM252200 12007KT P6SM OVC050=

USA.gov is the U.S. government's official web portal to all federal, state and local government web resources and services.